createdAt,value
2022-10-05T00:00:23.480Z,1006.2
2022-10-05T00:01:39.771Z,1006.1
2022-10-05T00:02:56.067Z,1006.1
2022-10-05T00:04:12.360Z,1006.1
2022-10-05T00:05:28.645Z,1006.1
2022-10-05T00:06:44.949Z,1006.2
2022-10-05T00:08:01.247Z,1006.1
2022-10-05T00:09:17.527Z,1006.2
2022-10-05T00:10:33.819Z,1006.1
2022-10-05T00:11:50.124Z,1006.1
2022-10-05T00:13:06.420Z,1006.1
2022-10-05T00:14:22.701Z,1006.2
2022-10-05T00:15:38.986Z,1006.2
2022-10-05T00:16:54.310Z,1006.2
2022-10-05T00:18:10.592Z,1006.2
2022-10-05T00:19:26.898Z,1006.2
2022-10-05T00:20:43.171Z,1006.1
2022-10-05T00:23:15.764Z,1006.1
2022-10-05T00:24:32.053Z,1006.1
2022-10-05T00:25:48.360Z,1006.1
2022-10-05T00:27:03.666Z,1006.1
2022-10-05T00:28:18.969Z,1006.2
2022-10-05T00:29:34.294Z,1006.2
2022-10-05T00:30:49.593Z,1006.2
2022-10-05T00:32:05.884Z,1006.2
2022-10-05T00:33:22.186Z,1006.2
2022-10-05T00:34:38.476Z,1006.2
2022-10-05T00:35:54.775Z,1006.2
2022-10-05T00:37:11.064Z,1006.2
2022-10-05T00:38:27.350Z,1006.2
2022-10-05T00:39:43.636Z,1006.1
2022-10-05T00:40:59.930Z,1006.1
2022-10-05T00:42:16.231Z,1006.1
2022-10-05T00:43:32.519Z,1006.1
2022-10-05T00:44:48.806Z,1006.1
2022-10-05T00:46:05.103Z,1006.1
2022-10-05T00:47:20.412Z,1006.1
2022-10-05T00:48:36.709Z,1006.1
2022-10-05T00:49:53.004Z,1006.1
2022-10-05T00:51:09.282Z,1006.1
2022-10-05T00:52:25.577Z,1006.1
2022-10-05T00:53:41.878Z,1006
2022-10-05T00:54:58.181Z,1006
2022-10-05T00:56:13.491Z,1006
2022-10-05T00:57:28.795Z,1006
2022-10-05T00:58:44.115Z,1006
2022-10-05T00:59:59.422Z,1005.9
2022-10-05T01:01:15.699Z,1006
2022-10-05T01:02:31.997Z,1006
2022-10-05T01:03:48.285Z,1006
2022-10-05T01:05:04.594Z,1006
2022-10-05T01:06:20.882Z,1006
2022-10-05T01:08:53.435Z,1005.9
2022-10-05T01:10:09.724Z,1006
2022-10-05T01:11:26.005Z,1006
2022-10-05T01:12:42.313Z,1006
2022-10-05T01:13:58.609Z,1006
2022-10-05T01:15:14.885Z,1006
2022-10-05T01:16:30.193Z,1006
2022-10-05T01:17:46.489Z,1006.1
2022-10-05T01:19:02.786Z,1006.1
2022-10-05T01:20:19.089Z,1006.1
2022-10-05T01:21:35.370Z,1006.1
2022-10-05T01:22:51.671Z,1006.2
2022-10-05T01:24:07.965Z,1006.1
2022-10-05T01:25:24.254Z,1006.1
2022-10-05T01:26:39.572Z,1006.1
2022-10-05T01:27:54.865Z,1006.2
2022-10-05T01:29:10.184Z,1006.2
2022-10-05T01:30:25.505Z,1006.2
2022-10-05T01:31:41.791Z,1006.2
2022-10-05T01:32:58.000Z,1006.2
2022-10-05T01:34:14.372Z,1006.2
2022-10-05T01:35:30.663Z,1006.2
2022-10-05T01:36:46.956Z,1006.2
2022-10-05T01:38:03.260Z,1006.2
2022-10-05T01:39:19.546Z,1006.2
2022-10-05T01:40:35.826Z,1006.2
2022-10-05T01:41:52.136Z,1006.2
2022-10-05T01:43:08.426Z,1006.2
2022-10-05T01:44:24.704Z,1006.3
2022-10-05T01:45:41.017Z,1006.3
2022-10-05T01:46:56.326Z,1006.3
2022-10-05T01:48:12.605Z,1006.3
2022-10-05T01:49:28.900Z,1006.2
2022-10-05T01:50:45.199Z,1006.1
2022-10-05T01:52:01.478Z,1006.1
2022-10-05T01:53:17.778Z,1006.1
2022-10-05T01:54:34.066Z,1006.1
2022-10-05T01:55:49.378Z,1006
2022-10-05T01:57:04.699Z,1006
2022-10-05T01:58:20.977Z,1005.9
2022-10-05T01:59:37.289Z,1006
2022-10-05T02:00:52.598Z,1006
2022-10-05T02:02:07.892Z,1006
2022-10-05T02:03:24.203Z,1006
2022-10-05T02:04:40.478Z,1006
2022-10-05T02:05:56.781Z,1006
2022-10-05T02:07:13.072Z,1006
2022-10-05T02:08:29.371Z,1006
2022-10-05T02:09:45.665Z,1006
2022-10-05T02:11:01.961Z,1005.9
2022-10-05T02:12:18.250Z,1006
2022-10-05T02:13:34.539Z,1005.9
2022-10-05T02:14:50.836Z,1006
2022-10-05T02:16:07.127Z,1005.9
2022-10-05T02:17:23.411Z,1006
2022-10-05T02:18:38.723Z,1006
2022-10-05T02:19:55.013Z,1006
2022-10-05T02:21:11.307Z,1006
2022-10-05T02:22:27.600Z,1006.1
2022-10-05T02:23:43.889Z,1006
2022-10-05T02:25:00.182Z,1006.1
2022-10-05T02:26:16.476Z,1006.1
2022-10-05T02:27:31.804Z,1006.1
2022-10-05T02:28:47.100Z,1006.1
2022-10-05T02:30:03.389Z,1006.2
2022-10-05T02:31:19.680Z,1006.2
2022-10-05T02:32:35.980Z,1006.2
2022-10-05T02:33:52.263Z,1006.2
2022-10-05T02:35:08.562Z,1006.1
2022-10-05T02:36:24.861Z,1006.2
2022-10-05T02:37:41.152Z,1006.1
2022-10-05T02:38:57.438Z,1006.1
2022-10-05T02:41:30.036Z,1006.1
2022-10-05T02:42:46.325Z,1006.1
2022-10-05T02:44:02.620Z,1006.1
2022-10-05T02:47:50.508Z,1006
2022-10-05T02:49:05.829Z,1006
2022-10-05T02:50:21.137Z,1006
2022-10-05T02:51:36.450Z,1006.1
2022-10-05T02:52:51.755Z,1006.1
2022-10-05T02:54:08.042Z,1006.1
2022-10-05T02:55:24.336Z,1006
2022-10-05T02:56:40.637Z,1006.1
2022-10-05T02:57:56.927Z,1006
2022-10-05T02:59:13.212Z,1006
2022-10-05T03:00:29.498Z,1006
2022-10-05T03:01:45.793Z,1006
2022-10-05T03:03:02.092Z,1006
2022-10-05T03:04:18.377Z,1006
2022-10-05T03:05:33.700Z,1006
2022-10-05T03:06:49.013Z,1005.9
2022-10-05T03:08:05.296Z,1005.9
2022-10-05T03:09:21.604Z,1005.9
2022-10-05T03:10:37.894Z,1005.9
2022-10-05T03:11:54.177Z,1005.9
2022-10-05T03:13:10.482Z,1005.9
2022-10-05T03:14:26.763Z,1006
2022-10-05T03:15:43.052Z,1006
2022-10-05T03:18:15.648Z,1006
2022-10-05T03:19:31.942Z,1006
2022-10-05T03:20:48.226Z,1006
2022-10-05T03:22:04.531Z,1006
2022-10-05T03:23:19.836Z,1005.9
2022-10-05T03:24:36.113Z,1006
2022-10-05T03:25:52.419Z,1006
2022-10-05T03:27:08.709Z,1006
2022-10-05T03:28:25.005Z,1006
2022-10-05T03:29:41.299Z,1006
2022-10-05T03:30:57.589Z,1006
2022-10-05T03:32:13.870Z,1005.9
2022-10-05T03:33:29.190Z,1005.9
2022-10-05T03:34:44.501Z,1005.9
2022-10-05T03:35:59.819Z,1005.9
2022-10-05T03:37:15.117Z,1005.9
2022-10-05T03:38:31.411Z,1005.9
2022-10-05T03:39:47.719Z,1005.9
2022-10-05T03:41:04.007Z,1005.9
2022-10-05T03:42:20.304Z,1005.8
2022-10-05T03:43:36.599Z,1005.8
2022-10-05T03:44:52.886Z,1005.8
2022-10-05T03:46:09.165Z,1005.8
2022-10-05T03:47:25.471Z,1005.8
2022-10-05T03:48:41.755Z,1005.8
2022-10-05T03:49:58.048Z,1005.8
2022-10-05T03:51:14.338Z,1005.8
2022-10-05T03:52:30.642Z,1005.8
2022-10-05T03:53:45.936Z,1005.8
2022-10-05T03:55:02.248Z,1005.7
2022-10-05T03:56:17.557Z,1005.7
2022-10-05T03:57:33.852Z,1005.8
2022-10-05T03:58:50.148Z,1005.8
2022-10-05T04:00:06.436Z,1005.8
2022-10-05T04:01:22.728Z,1005.8
2022-10-05T04:02:38.034Z,1005.8
2022-10-05T04:03:53.349Z,1005.7
2022-10-05T04:05:09.642Z,1005.7
2022-10-05T04:06:24.959Z,1005.7
2022-10-05T04:07:40.252Z,1005.8
2022-10-05T04:08:56.561Z,1005.7
2022-10-05T04:10:12.852Z,1005.7
2022-10-05T04:11:29.145Z,1005.7
2022-10-05T04:12:45.424Z,1005.7
2022-10-05T04:14:01.716Z,1005.7
2022-10-05T04:15:18.019Z,1005.6
2022-10-05T04:16:34.314Z,1005.7
2022-10-05T04:17:50.614Z,1005.6
2022-10-05T04:19:06.897Z,1005.6
2022-10-05T04:20:23.192Z,1005.6
2022-10-05T04:21:39.483Z,1005.6
2022-10-05T04:22:55.773Z,1005.5
2022-10-05T04:24:11.094Z,1005.6
2022-10-05T04:25:27.384Z,1005.5
2022-10-05T04:26:43.659Z,1005.6
2022-10-05T04:27:59.957Z,1005.6
2022-10-05T04:29:16.247Z,1005.6
2022-10-05T04:30:32.556Z,1005.6
2022-10-05T04:31:48.833Z,1005.6
2022-10-05T04:33:04.158Z,1005.5
2022-10-05T04:34:19.456Z,1005.6
2022-10-05T04:35:34.769Z,1005.6
2022-10-05T04:36:50.084Z,1005.6
2022-10-05T04:38:06.372Z,1005.7
2022-10-05T04:39:22.666Z,1005.7
2022-10-05T04:40:38.960Z,1005.6
2022-10-05T04:41:55.247Z,1005.6
2022-10-05T04:43:11.542Z,1005.7
2022-10-05T04:44:27.834Z,1005.6
2022-10-05T04:45:44.140Z,1005.6
2022-10-05T04:47:00.426Z,1005.6
2022-10-05T04:48:16.663Z,1005.6
2022-10-05T04:49:32.914Z,1005.6
2022-10-05T04:50:49.162Z,1005.5
2022-10-05T04:52:05.389Z,1005.5
2022-10-05T04:53:20.645Z,1005.5
2022-10-05T04:54:36.896Z,1005.5
2022-10-05T04:55:53.123Z,1005.6
2022-10-05T04:57:09.373Z,1005.5
2022-10-05T04:58:25.600Z,1005.6
2022-10-05T04:59:41.842Z,1005.6
2022-10-05T05:00:58.086Z,1005.7
2022-10-05T05:02:13.350Z,1005.7
2022-10-05T05:03:28.590Z,1005.7
2022-10-05T05:04:43.868Z,1005.7
2022-10-05T05:05:59.105Z,1005.7
2022-10-05T05:07:15.353Z,1005.7
2022-10-05T05:08:31.579Z,1005.7
2022-10-05T05:09:47.834Z,1005.7
2022-10-05T05:11:04.072Z,1005.7
2022-10-05T05:12:20.302Z,1005.7
2022-10-05T05:13:36.551Z,1005.7
2022-10-05T05:14:52.792Z,1005.7
2022-10-05T05:16:09.032Z,1005.7
2022-10-05T05:17:25.261Z,1005.7
2022-10-05T05:18:41.497Z,1005.8
2022-10-05T05:19:57.735Z,1005.8
2022-10-05T05:21:13.973Z,1005.8
2022-10-05T05:22:29.239Z,1005.8
2022-10-05T05:23:45.466Z,1005.8
2022-10-05T05:25:01.715Z,1005.7
2022-10-05T05:26:17.950Z,1005.7
2022-10-05T05:27:34.184Z,1005.7
2022-10-05T05:28:50.434Z,1005.7
2022-10-05T05:30:06.665Z,1005.7
2022-10-05T05:31:21.930Z,1005.7
2022-10-05T05:32:37.176Z,1005.6
2022-10-05T05:33:53.424Z,1005.6
2022-10-05T05:35:09.658Z,1005.6
2022-10-05T05:36:25.892Z,1005.7
2022-10-05T05:37:42.135Z,1005.7
2022-10-05T05:38:58.382Z,1005.6
2022-10-05T05:40:14.613Z,1005.6
2022-10-05T05:41:30.848Z,1005.7
2022-10-05T05:42:47.099Z,1005.6
2022-10-05T05:44:03.329Z,1005.6
2022-10-05T05:45:19.556Z,1005.6
2022-10-05T05:46:35.795Z,1005.6
2022-10-05T05:47:52.033Z,1005.6
2022-10-05T05:49:07.296Z,1005.6
2022-10-05T05:50:23.525Z,1005.5
2022-10-05T05:51:39.769Z,1005.5
2022-10-05T05:52:56.021Z,1005.4
2022-10-05T05:54:12.255Z,1005.4
2022-10-05T05:55:28.487Z,1005.3
2022-10-05T05:56:44.726Z,1005.3
2022-10-05T05:57:59.998Z,1005.3
2022-10-05T05:59:15.248Z,1005.3
2022-10-05T06:00:31.489Z,1005.3
2022-10-05T06:01:46.748Z,1005.3
2022-10-05T06:03:01.990Z,1005.3
2022-10-05T06:04:17.261Z,1005.3
2022-10-05T06:05:32.510Z,1005.3
2022-10-05T06:08:04.984Z,1005.3
2022-10-05T06:09:21.226Z,1005.3
2022-10-05T06:10:37.478Z,1005.3
2022-10-05T06:11:53.698Z,1005.3
2022-10-05T06:13:09.940Z,1005.2
2022-10-05T06:14:26.000Z,1005.2
2022-10-05T06:15:42.414Z,1005.3
2022-10-05T06:16:58.666Z,1005.2
2022-10-05T06:18:14.909Z,1005.3
2022-10-05T06:19:31.138Z,1005.2
2022-10-05T06:20:47.372Z,1005.2
2022-10-05T06:22:02.641Z,1005.2
2022-10-05T06:23:18.881Z,1005.2
2022-10-05T06:24:35.109Z,1005.2
2022-10-05T06:25:51.358Z,1005.2
2022-10-05T06:27:07.588Z,1005.1
2022-10-05T06:28:23.832Z,1005.1
2022-10-05T06:29:40.063Z,1005.1
2022-10-05T06:30:56.310Z,1005.1
2022-10-05T06:32:11.572Z,1005.1
2022-10-05T06:33:26.830Z,1005
2022-10-05T06:34:42.081Z,1005
2022-10-05T06:35:57.336Z,1005.1
2022-10-05T06:37:13.571Z,1005
2022-10-05T06:38:29.810Z,1005.1
2022-10-05T06:39:46.058Z,1005.1
2022-10-05T06:41:02.301Z,1005.2
2022-10-05T06:42:18.536Z,1005.2
2022-10-05T06:43:34.766Z,1005.1
2022-10-05T06:44:51.001Z,1005.2
2022-10-05T06:46:07.256Z,1005.2
2022-10-05T06:47:23.483Z,1005.2
2022-10-05T06:48:39.719Z,1005.2
2022-10-05T06:49:55.964Z,1005.2
2022-10-05T06:51:12.205Z,1005.2
2022-10-05T06:52:27.460Z,1005.2
2022-10-05T06:53:43.700Z,1005.2
2022-10-05T06:54:59.929Z,1005.2
2022-10-05T06:56:16.179Z,1005.2
2022-10-05T06:57:32.401Z,1005.2
2022-10-05T06:58:48.657Z,1005.2
2022-10-05T07:00:04.898Z,1005.1
2022-10-05T07:01:20.150Z,1005.1
2022-10-05T07:02:35.404Z,1005.1
2022-10-05T07:03:51.636Z,1005.1
2022-10-05T07:05:06.900Z,1005.2
2022-10-05T07:06:22.159Z,1005.2
2022-10-05T07:07:38.387Z,1005.2
2022-10-05T07:08:54.633Z,1005.2
2022-10-05T07:10:10.879Z,1005.2
2022-10-05T07:11:27.120Z,1005.2
2022-10-05T07:13:59.592Z,1005.3
2022-10-05T07:15:15.821Z,1005.3
2022-10-05T07:16:32.074Z,1005.2
2022-10-05T07:17:48.310Z,1005.2
2022-10-05T07:19:04.536Z,1005.2
2022-10-05T07:20:20.777Z,1005.3
2022-10-05T07:21:37.014Z,1005.2
2022-10-05T07:22:52.269Z,1005.2
2022-10-05T07:24:08.507Z,1005.2
2022-10-05T07:25:24.749Z,1005.2
2022-10-05T07:26:40.999Z,1005.2
2022-10-05T07:27:57.228Z,1005.1
2022-10-05T07:29:13.459Z,1005.2
2022-10-05T07:30:29.701Z,1005.2
2022-10-05T07:31:45.939Z,1005.2
2022-10-05T07:33:01.205Z,1005.2
2022-10-05T07:34:16.470Z,1005.1
2022-10-05T07:35:31.725Z,1005.1
2022-10-05T07:36:46.965Z,1005.1
2022-10-05T07:38:03.207Z,1005.1
2022-10-05T07:39:19.443Z,1005.1
2022-10-05T07:40:35.690Z,1005.1
2022-10-05T07:41:51.940Z,1005.1
2022-10-05T07:43:08.171Z,1005.1
2022-10-05T07:44:24.410Z,1005
2022-10-05T07:45:40.641Z,1005
2022-10-05T07:46:56.879Z,1005
2022-10-05T07:48:13.120Z,1005.1
2022-10-05T07:49:29.365Z,1005.1
2022-10-05T07:50:45.597Z,1005.1
2022-10-05T07:52:01.849Z,1005.1
2022-10-05T07:53:17.086Z,1005.1
2022-10-05T07:54:33.327Z,1005
2022-10-05T07:55:49.575Z,1005
2022-10-05T07:57:05.810Z,1005
2022-10-05T07:58:22.051Z,1005
2022-10-05T07:59:38.294Z,1005
2022-10-05T08:00:54.525Z,1004.9
2022-10-05T08:02:09.784Z,1004.8
2022-10-05T08:03:25.032Z,1004.9
2022-10-05T08:04:41.287Z,1004.8
2022-10-05T08:05:57.510Z,1004.8
2022-10-05T08:07:12.769Z,1004.8
2022-10-05T08:08:28.030Z,1004.8
2022-10-05T08:09:44.278Z,1004.8
2022-10-05T08:10:59.539Z,1004.8
2022-10-05T08:12:15.774Z,1004.8
2022-10-05T08:13:32.006Z,1004.9
2022-10-05T08:14:48.250Z,1004.9
2022-10-05T08:16:04.490Z,1004.8
2022-10-05T08:17:20.717Z,1004.8
2022-10-05T08:18:36.958Z,1004.7
2022-10-05T08:19:53.196Z,1004.8
2022-10-05T08:21:09.440Z,1004.8
2022-10-05T08:22:25.684Z,1004.8
2022-10-05T08:23:41.910Z,1004.8
2022-10-05T08:24:58.158Z,1004.8
2022-10-05T08:26:14.393Z,1004.9
2022-10-05T08:27:29.650Z,1004.8
2022-10-05T08:28:45.876Z,1004.8
2022-10-05T08:30:02.126Z,1004.8
2022-10-05T08:31:18.355Z,1004.8
2022-10-05T08:32:34.593Z,1004.8
2022-10-05T08:33:49.864Z,1004.9
2022-10-05T08:35:05.110Z,1004.8
2022-10-05T08:36:20.363Z,1004.8
2022-10-05T08:37:35.633Z,1004.8
2022-10-05T08:38:51.856Z,1004.8
2022-10-05T08:40:08.108Z,1004.8
2022-10-05T08:41:24.334Z,1004.9
2022-10-05T08:42:40.574Z,1004.9
2022-10-05T08:43:56.816Z,1004.8
2022-10-05T08:45:13.063Z,1004.9
2022-10-05T08:46:29.298Z,1004.9
2022-10-05T08:47:45.540Z,1004.9
2022-10-05T08:49:01.778Z,1004.9
2022-10-05T08:50:18.008Z,1004.9
2022-10-05T08:51:34.258Z,1004.8
2022-10-05T08:52:50.484Z,1004.9
2022-10-05T08:54:05.736Z,1004.9
2022-10-05T08:55:21.976Z,1004.9
2022-10-05T08:56:38.215Z,1004.9
2022-10-05T08:57:54.453Z,1004.8
2022-10-05T08:59:10.685Z,1004.9
2022-10-05T09:00:26.933Z,1004.8
2022-10-05T09:01:43.163Z,1004.8
2022-10-05T09:02:58.431Z,1004.8
2022-10-05T09:04:13.690Z,1004.8
2022-10-05T09:05:28.940Z,1004.7
2022-10-05T09:06:44.191Z,1004.7
2022-10-05T09:08:00.439Z,1004.8
2022-10-05T09:09:16.667Z,1004.8
2022-10-05T09:10:32.922Z,1004.8
2022-10-05T09:11:49.154Z,1004.8
2022-10-05T09:13:05.394Z,1004.8
2022-10-05T09:14:21.639Z,1004.8
2022-10-05T09:15:37.868Z,1004.8
2022-10-05T09:16:54.110Z,1004.7
2022-10-05T09:18:10.338Z,1004.7
2022-10-05T09:19:26.581Z,1004.8
2022-10-05T09:20:42.835Z,1004.7
2022-10-05T09:21:59.052Z,1004.8
2022-10-05T09:23:14.319Z,1004.8
2022-10-05T09:24:30.563Z,1004.8
2022-10-05T09:25:46.791Z,1004.8
2022-10-05T09:27:03.033Z,1004.8
2022-10-05T09:28:19.276Z,1004.8
2022-10-05T09:29:35.501Z,1004.8
2022-10-05T09:30:51.741Z,1004.9
2022-10-05T09:32:07.007Z,1004.8
2022-10-05T09:33:22.265Z,1004.8
2022-10-05T09:34:38.509Z,1004.8
2022-10-05T09:35:54.737Z,1004.7
2022-10-05T09:37:10.003Z,1004.7
2022-10-05T09:38:25.250Z,1004.7
2022-10-05T09:39:41.489Z,1004.6
2022-10-05T09:40:57.732Z,1004.6
2022-10-05T09:42:13.966Z,1004.6
2022-10-05T09:43:30.207Z,1004.6
2022-10-05T09:44:46.436Z,1004.5
2022-10-05T09:46:02.678Z,1004.5
2022-10-05T09:47:18.914Z,1004.5
2022-10-05T09:48:35.166Z,1004.5
2022-10-05T09:49:51.388Z,1004.5
2022-10-05T09:51:07.645Z,1004.5
2022-10-05T09:52:23.870Z,1004.5
2022-10-05T09:53:40.113Z,1004.4
2022-10-05T09:54:55.363Z,1004.4
2022-10-05T09:56:11.615Z,1004.4
2022-10-05T09:57:27.849Z,1004.3
2022-10-05T09:58:44.089Z,1004.4
2022-10-05T10:00:00.324Z,1004.3
2022-10-05T10:01:16.563Z,1004.3
2022-10-05T10:02:32.787Z,1004.3
2022-10-05T10:03:48.050Z,1004.4
2022-10-05T10:06:19.541Z,1004.3
2022-10-05T10:07:34.812Z,1004.3
2022-10-05T10:08:50.065Z,1004.4
2022-10-05T10:10:05.332Z,1004.3
2022-10-05T10:11:20.567Z,1004.3
2022-10-05T10:12:36.826Z,1004.3
2022-10-05T10:13:53.059Z,1004.3
2022-10-05T10:15:09.299Z,1004.3
2022-10-05T10:16:25.539Z,1004.4
2022-10-05T10:17:41.764Z,1004.3
2022-10-05T10:18:58.017Z,1004.3
2022-10-05T10:20:14.253Z,1004.2
2022-10-05T10:21:30.479Z,1004.2
2022-10-05T10:22:46.716Z,1004.2
2022-10-05T10:24:02.954Z,1004.2
2022-10-05T10:25:19.208Z,1004.3
2022-10-05T10:26:35.432Z,1004.2
2022-10-05T10:27:50.695Z,1004.2
2022-10-05T10:29:06.922Z,1004.2
2022-10-05T10:30:23.166Z,1004.2
2022-10-05T10:31:39.407Z,1004.2
2022-10-05T10:32:55.648Z,1004.2
2022-10-05T10:34:11.893Z,1004.3
2022-10-05T10:36:44.364Z,1004.3
2022-10-05T10:37:59.627Z,1004.3
2022-10-05T10:39:14.876Z,1004.3
2022-10-05T10:40:30.130Z,1004.2
2022-10-05T10:41:45.397Z,1004.1
2022-10-05T10:43:01.623Z,1004.2
2022-10-05T10:44:17.873Z,1004.2
2022-10-05T10:45:34.114Z,1004.2
2022-10-05T10:46:50.355Z,1004.1
2022-10-05T10:48:06.586Z,1004.2
2022-10-05T10:49:22.832Z,1004.2
2022-10-05T10:50:39.064Z,1004.1
2022-10-05T10:51:55.304Z,1004.1
2022-10-05T10:53:11.531Z,1004.2
2022-10-05T10:54:27.785Z,1004.1
2022-10-05T10:55:44.019Z,1004.1
2022-10-05T10:57:00.258Z,1004.1
2022-10-05T10:58:15.516Z,1004
2022-10-05T10:59:31.741Z,1004
2022-10-05T11:00:47.980Z,1004
2022-10-05T11:02:04.216Z,1004
2022-10-05T11:03:20.469Z,1004
2022-10-05T11:04:36.711Z,1004
2022-10-05T11:05:52.935Z,1004
2022-10-05T11:07:08.202Z,1004
2022-10-05T11:08:23.461Z,1004
2022-10-05T11:09:39.704Z,1003.9
2022-10-05T11:10:55.946Z,1003.9
2022-10-05T11:12:12.173Z,1003.9
2022-10-05T11:13:28.420Z,1004
2022-10-05T11:14:44.655Z,1004.1
2022-10-05T11:16:00.891Z,1003.9
2022-10-05T11:17:17.139Z,1003.9
2022-10-05T11:18:33.359Z,1003.9
2022-10-05T11:19:49.606Z,1003.9
2022-10-05T11:21:05.855Z,1003.9
2022-10-05T11:22:22.084Z,1003.8
2022-10-05T11:23:38.321Z,1003.9
2022-10-05T11:24:53.575Z,1003.8
2022-10-05T11:26:09.815Z,1003.8
2022-10-05T11:27:26.052Z,1003.9
2022-10-05T11:28:42.297Z,1003.8
2022-10-05T11:29:58.541Z,1003.9
2022-10-05T11:31:14.771Z,1003.8
2022-10-05T11:32:31.016Z,1003.8
2022-10-05T11:33:46.273Z,1003.8
2022-10-05T11:35:01.535Z,1003.8
2022-10-05T11:36:17.758Z,1003.9
2022-10-05T11:37:34.012Z,1003.7
2022-10-05T11:38:50.248Z,1003.8
2022-10-05T11:40:06.484Z,1003.8
2022-10-05T11:41:22.715Z,1003.8
2022-10-05T11:42:38.967Z,1003.8
2022-10-05T11:43:55.189Z,1003.8
2022-10-05T11:45:11.431Z,1003.7
2022-10-05T11:46:27.682Z,1003.7
2022-10-05T11:47:43.923Z,1003.7
2022-10-05T11:49:00.156Z,1003.8
2022-10-05T11:50:16.399Z,1003.8
2022-10-05T11:51:31.647Z,1003.8
2022-10-05T11:52:47.886Z,1003.8
2022-10-05T11:54:04.125Z,1003.7
2022-10-05T11:55:19.391Z,1003.7
2022-10-05T11:56:34.640Z,1003.7
2022-10-05T11:57:49.890Z,1003.7
2022-10-05T11:59:05.145Z,1003.7
2022-10-05T12:00:20.422Z,1003.6
2022-10-05T12:01:35.667Z,1003.7
2022-10-05T12:02:50.938Z,1003.7
2022-10-05T12:04:06.183Z,1003.7
2022-10-05T12:05:22.426Z,1003.7
2022-10-05T12:06:38.650Z,1003.6
2022-10-05T12:07:54.892Z,1003.6
2022-10-05T12:09:11.136Z,1003.6
2022-10-05T12:10:27.380Z,1003.6
2022-10-05T12:11:43.607Z,1003.6
2022-10-05T12:12:59.845Z,1003.5
2022-10-05T12:14:16.096Z,1003.5
2022-10-05T12:15:32.321Z,1003.5
2022-10-05T12:16:48.567Z,1003.6
2022-10-05T12:18:04.797Z,1003.6
2022-10-05T12:19:21.040Z,1003.5
2022-10-05T12:20:36.293Z,1003.5
2022-10-05T12:21:52.533Z,1003.5
2022-10-05T12:23:08.775Z,1003.5
2022-10-05T12:24:25.014Z,1003.4
2022-10-05T12:25:40.272Z,1003.5
2022-10-05T12:26:56.504Z,1003.4
2022-10-05T12:28:12.751Z,1003.4
2022-10-05T12:29:28.018Z,1003.4
2022-10-05T12:30:43.268Z,1003.4
2022-10-05T12:31:58.539Z,1003.3
2022-10-05T12:33:13.795Z,1003.3
2022-10-05T12:34:30.026Z,1003.4
2022-10-05T12:35:46.251Z,1003.4
2022-10-05T12:37:02.500Z,1003.3
2022-10-05T12:38:18.738Z,1003.3
2022-10-05T12:39:34.970Z,1003.3
2022-10-05T12:40:51.206Z,1003.4
2022-10-05T12:42:07.464Z,1003.4
2022-10-05T12:44:39.926Z,1003.4
2022-10-05T12:45:56.179Z,1003.4
2022-10-05T12:47:12.414Z,1003.4
2022-10-05T12:48:28.650Z,1003.3
2022-10-05T12:49:43.900Z,1003.3
2022-10-05T12:51:00.146Z,1003.3
2022-10-05T12:52:16.377Z,1003.3
2022-10-05T12:53:32.610Z,1003.3
2022-10-05T12:54:48.856Z,1003.3
2022-10-05T12:56:05.095Z,1003.3
2022-10-05T12:57:21.333Z,1003.2
2022-10-05T12:58:37.569Z,1003.2
2022-10-05T12:59:52.823Z,1003.2
2022-10-05T13:01:08.080Z,1003.2
2022-10-05T13:02:23.342Z,1003.2
2022-10-05T13:03:38.594Z,1003.1
2022-10-05T13:04:54.835Z,1003.2
2022-10-05T13:06:11.081Z,1003.2
2022-10-05T13:07:27.322Z,1003.1
2022-10-05T13:08:43.564Z,1003.2
2022-10-05T13:09:59.796Z,1003.1
2022-10-05T13:11:16.034Z,1003.1
2022-10-05T13:12:32.275Z,1003.2
2022-10-05T13:13:48.508Z,1003.1
2022-10-05T13:15:04.750Z,1003.1
2022-10-05T13:16:20.990Z,1003.2
2022-10-05T13:17:37.224Z,1003.1
2022-10-05T13:18:53.466Z,1003.1
2022-10-05T13:20:08.723Z,1003.1
2022-10-05T13:21:24.962Z,1003.2
2022-10-05T13:22:41.195Z,1003.2
2022-10-05T13:23:57.442Z,1003.1
2022-10-05T13:25:13.679Z,1003.1
2022-10-05T13:26:29.912Z,1003.1
2022-10-05T13:27:46.151Z,1003.2
2022-10-05T13:29:01.423Z,1003.1
2022-10-05T13:30:16.670Z,1003.1
2022-10-05T13:31:31.929Z,1003.1
2022-10-05T13:32:47.193Z,1003.1
2022-10-05T13:34:03.418Z,1003.1
2022-10-05T13:35:19.658Z,1003
2022-10-05T13:36:35.900Z,1003
2022-10-05T13:37:52.152Z,1003
2022-10-05T13:39:08.385Z,1003.1
2022-10-05T13:40:24.611Z,1003
2022-10-05T13:41:40.849Z,1003
2022-10-05T13:42:57.091Z,1003
2022-10-05T13:44:13.330Z,1003
2022-10-05T13:45:29.576Z,1003
2022-10-05T13:46:45.811Z,1003.1
2022-10-05T13:48:02.055Z,1003
2022-10-05T13:49:17.298Z,1003.1
2022-10-05T13:50:33.535Z,1003
2022-10-05T13:51:49.774Z,1003.1
2022-10-05T13:53:06.027Z,1003
2022-10-05T13:54:22.257Z,1003
2022-10-05T13:55:38.498Z,1003
2022-10-05T13:56:54.745Z,1002.9
2022-10-05T13:58:10.008Z,1002.9
2022-10-05T13:59:25.261Z,1003
2022-10-05T14:00:40.512Z,1003
2022-10-05T14:01:55.771Z,1003
2022-10-05T14:03:12.015Z,1003
2022-10-05T14:04:28.255Z,1003
2022-10-05T14:05:44.493Z,1003
2022-10-05T14:08:16.971Z,1003
2022-10-05T14:09:33.200Z,1003
2022-10-05T14:10:49.443Z,1003
2022-10-05T14:12:05.680Z,1003
2022-10-05T14:13:21.923Z,1003
2022-10-05T14:14:38.151Z,1002.9
2022-10-05T14:15:54.392Z,1002.9
2022-10-05T14:17:10.641Z,1003
2022-10-05T14:18:25.885Z,1003
2022-10-05T14:19:42.133Z,1003
2022-10-05T14:20:58.371Z,1002.9
2022-10-05T14:22:14.604Z,1003
2022-10-05T14:23:30.833Z,1002.9
2022-10-05T14:24:47.073Z,1003
2022-10-05T14:26:03.313Z,1002.9
2022-10-05T14:27:19.563Z,1002.9
2022-10-05T14:28:34.829Z,1002.9
2022-10-05T14:29:50.065Z,1002.9
2022-10-05T14:31:06.318Z,1002.9
2022-10-05T14:32:22.557Z,1002.9
2022-10-05T14:33:38.784Z,1002.9
2022-10-05T14:34:55.032Z,1002.9
2022-10-05T14:36:11.261Z,1002.9
2022-10-05T14:37:27.502Z,1002.9
2022-10-05T14:38:43.750Z,1003
2022-10-05T14:39:59.983Z,1002.9
2022-10-05T14:41:16.223Z,1003
2022-10-05T14:42:32.451Z,1003
2022-10-05T14:43:48.702Z,1003
2022-10-05T14:45:04.944Z,1002.9
2022-10-05T14:46:20.186Z,1002.9
2022-10-05T14:47:36.431Z,1003
2022-10-05T14:48:52.661Z,1002.9
2022-10-05T14:50:08.908Z,1002.9
2022-10-05T14:51:25.148Z,1002.8
2022-10-05T14:52:41.384Z,1002.9
2022-10-05T14:53:57.618Z,1002.9
2022-10-05T14:55:12.876Z,1002.8
2022-10-05T14:56:28.133Z,1002.8
2022-10-05T14:57:44.381Z,1002.8
2022-10-05T14:59:00.622Z,1002.8
2022-10-05T15:00:16.864Z,1002.7
2022-10-05T15:01:33.096Z,1002.7
2022-10-05T15:02:49.324Z,1002.8
2022-10-05T15:04:05.563Z,1002.8
2022-10-05T15:05:21.821Z,1002.8
2022-10-05T15:06:38.044Z,1002.7
2022-10-05T15:07:54.285Z,1002.8
2022-10-05T15:09:10.534Z,1002.7
2022-10-05T15:10:26.774Z,1002.8
2022-10-05T15:11:43.013Z,1002.7
2022-10-05T15:12:58.255Z,1002.8
2022-10-05T15:14:14.490Z,1002.8
2022-10-05T15:15:30.736Z,1002.8
2022-10-05T15:16:46.969Z,1002.8
2022-10-05T15:18:03.208Z,1002.8
2022-10-05T15:19:19.444Z,1002.8
2022-10-05T15:20:35.689Z,1002.8
2022-10-05T15:21:50.953Z,1002.8
2022-10-05T15:23:06.210Z,1002.9
2022-10-05T15:24:22.446Z,1002.9
2022-10-05T15:25:38.691Z,1002.8
2022-10-05T15:26:54.919Z,1002.8
2022-10-05T15:28:11.160Z,1002.8
2022-10-05T15:29:27.405Z,1002.8
2022-10-05T15:30:43.637Z,1002.8
2022-10-05T15:31:59.872Z,1002.8
2022-10-05T15:33:16.119Z,1002.8
2022-10-05T15:34:32.357Z,1002.8
2022-10-05T15:35:48.590Z,1002.8
2022-10-05T15:37:04.840Z,1002.7
2022-10-05T15:38:21.076Z,1002.8
2022-10-05T15:39:36.314Z,1002.7
2022-10-05T15:40:52.555Z,1002.8
2022-10-05T15:42:08.000Z,1002.7
2022-10-05T15:43:25.036Z,1002.7
2022-10-05T15:44:41.282Z,1002.8
2022-10-05T15:45:57.508Z,1002.8
2022-10-05T15:47:13.745Z,1002.8
2022-10-05T15:48:29.020Z,1002.8
2022-10-05T15:49:44.265Z,1002.9
2022-10-05T15:51:00.506Z,1002.8
2022-10-05T15:52:16.739Z,1002.8
2022-10-05T15:53:32.976Z,1002.8
2022-10-05T15:54:49.218Z,1002.8
2022-10-05T15:56:05.466Z,1002.8
2022-10-05T15:57:21.698Z,1002.7
2022-10-05T15:58:37.928Z,1002.8
2022-10-05T15:59:54.185Z,1002.8
2022-10-05T16:01:10.415Z,1002.7
2022-10-05T16:02:26.654Z,1002.8
2022-10-05T16:03:42.898Z,1002.8
2022-10-05T16:04:59.132Z,1002.8
2022-10-05T16:06:14.385Z,1002.8
2022-10-05T16:07:30.624Z,1002.8
2022-10-05T16:08:46.856Z,1002.9
2022-10-05T16:10:03.100Z,1002.8
2022-10-05T16:11:19.328Z,1002.9
2022-10-05T16:12:35.579Z,1002.9